RJSARJSS

Guest
Details From RJSA - AOMORI
To RJSS - SENDAI
Flight Number -
Tags generated
Created
Modified
Stats Distance 156 nm / 290 km
Max Altitude 19,500 ft / 5,944 m
Waypoints 3
Social Downloads 1
Likes 0
Share VATSIM

Download

Looking for another format? Having issues loading an existing format? Contact us
Advertisement - Login to hide

Notes

Basic altitude profile: - Ascent Rate: 2500ft/min - Ascent Speed: 250kts - Cruise Altitude: 35000ft - Cruise Speed: 420kts - Descent Rate: 1500ft/min - Descent Speed: 250kts Options: - Use NATs: yes - Use PACOTS: yes - Use low airways: yes - Use high airways: yes

Route

RJSA PEONY RJSS

ID Type Via Altitude Latitude Longitude Leg Dist Tot Dist Heading (true) Name
O RJSA APT - 0 ft / 0 m 40.73327˚ 140.68859˚ - 0 nm - AOMORI
PEONY FIX - 19,500 ft / 5,944 m 39.83271˚ 140.87292˚ 54 nm 54 nm 171° / 171° -
O RJSS APT - 0 ft / 0 m 38.13873˚ 140.91825˚ 101 nm 156 nm 179° / 179° SENDAI

Altitude Profile

Advertisement - Login to hide

RJSA

Details ICAO RJSA (AOJ)
Name AOMORI
Region Japan
Timezone Asia/Tokyo (UTC+9.0)
Stats Elevation 664 ft / 202 m (AMSL)
Location 40.733272° 140.688594°
Runways 1
Magnetic Variation 8.939° W

METAR

RJSA 160200Z 23006KT 9999 -SHSN FEW005 SCT010 BKN030 01/M01 Q1010

Decode

TAF

TAF RJSA 152309Z 1600/1706 26012KT 8000 -SHSN FEW010 BKN020 BKN030 TEMPO 1600/1602 3000 -SHSN FEW005 BKN008 BKN015 TEMPO 1605/1612 1500 -SHSN FEW005 BKN008 BKN015 TEMPO 1612/1618 0700 SHSN FEW002 BKN005 BKN008 TEMPO 1618/1706 0500 SHSN VV003

Decode

Departure Runways

ID Width Length Bearing (true) Bearing (mag) Surface Threshold Offset Overrun Length
06 200 ft / 61 m 9,838 ft / 2,999 m 51.79° 60.73° Asphalt 0 ft / 0 m 200 ft / 61 m
24 200 ft / 61 m 9,838 ft / 2,999 m 231.81° 240.75° Asphalt 0 ft / 0 m 200 ft / 61 m

RJSS

Details ICAO RJSS (SDJ)
Name SENDAI
Region Japan
Timezone Asia/Tokyo (UTC+9.0)
Stats Elevation 15 ft / 5 m (AMSL)
Location 38.138734° 140.918248°
Runways 2
Magnetic Variation 8.081° W

METAR

RJSS 160200Z 35007KT 9999 -SHRA FEW020 BKN040 06/M01 Q1011

Decode

TAF

TAF RJSS 152307Z 1600/1706 29012KT 9999 FEW020 BKN040 BECMG 1606/1608 02004KT TEMPO 1615/1621 3000 -SHSN BECMG 1618/1621 31013KT TEMPO 1621/1706 29020G30KT

Decode

Destination Runways

ID Width Length Bearing (true) Bearing (mag) Surface Threshold Offset Overrun Length
09 150 ft / 46 m 9,823 ft / 2,994 m 82.52° 90.60° Asphalt 0 ft / 0 m 200 ft / 61 m
12 150 ft / 46 m 3,932 ft / 1,199 m 117.79° 125.87° Asphalt 0 ft / 0 m 0 ft / 0 m
27 150 ft / 46 m 9,823 ft / 2,994 m 262.54° 270.62° Asphalt 0 ft / 0 m 200 ft / 61 m
30 150 ft / 46 m 3,932 ft / 1,199 m 297.80° 305.88° Asphalt 0 ft / 0 m 0 ft / 0 m

Approach Navaids

Runway Type Ident Frequency Range Bearing (true) Bearing (mag) Slope Elevation
27 Localiser ISD 111.70 MHz 18 nm / 33 km 262.52° 270.60° - 15 ft / 5 m (AMSL)
27 Glidescope ISD 111.70 MHz 10 nm / 19 km 262.53° 270.61° 3.00° 12 ft / 4 m (AMSL)
27 DME ISD 111.70 MHz 18 nm / 33 km - - - 29 ft / 9 m (AMSL)